createdAt,value
2018-11-25T00:01:29.043Z,100787.88
2018-11-25T00:04:02.320Z,100787.11
2018-11-25T00:06:36.176Z,100785.17
2018-11-25T00:09:11.649Z,100783.25
2018-11-25T00:11:45.230Z,100781.65
2018-11-25T00:14:17.727Z,100779.00
2018-11-25T00:16:50.142Z,100784.10
2018-11-25T00:19:22.503Z,100785.73
2018-11-25T00:21:54.934Z,100780.73
2018-11-25T00:24:27.318Z,100774.84
2018-11-25T00:26:59.755Z,100775.94
2018-11-25T00:29:33.038Z,100774.77
2018-11-25T00:32:05.457Z,100773.93
2018-11-25T00:34:38.331Z,100771.85
2018-11-25T00:37:10.775Z,100768.58
2018-11-25T00:39:43.122Z,100766.83
2018-11-25T00:42:15.586Z,100758.06
2018-11-25T00:44:47.989Z,100764.22
2018-11-25T00:47:20.413Z,100760.59
2018-11-25T00:49:52.782Z,100761.93
2018-11-25T00:52:25.214Z,100756.67
2018-11-25T00:54:57.596Z,100748.52
2018-11-25T00:57:30.013Z,100748.98
2018-11-25T01:00:02.397Z,100752.97
2018-11-25T01:02:35.772Z,100747.69
2018-11-25T01:05:08.810Z,100746.70
2018-11-25T01:07:41.354Z,100739.28
2018-11-25T01:10:17.826Z,100736.30
2018-11-25T01:12:50.264Z,100737.23
2018-11-25T01:15:22.680Z,100735.14
2018-11-25T01:17:55.059Z,100732.55
2018-11-25T01:20:27.510Z,100730.28
2018-11-25T01:22:59.931Z,100724.89
2018-11-25T01:25:32.417Z,100722.23
2018-11-25T01:28:04.794Z,100728.77
2018-11-25T01:30:37.212Z,100724.98
2018-11-25T01:33:09.643Z,100722.09
2018-11-25T01:35:41.995Z,100722.55
2018-11-25T01:38:14.425Z,100719.75
2018-11-25T01:40:46.913Z,100717.55
2018-11-25T01:43:19.306Z,100715.49
2018-11-25T01:45:51.713Z,100715.39
2018-11-25T01:48:24.185Z,100707.56
2018-11-25T01:50:56.584Z,100708.55
2018-11-25T01:53:29.051Z,100710.34
2018-11-25T01:56:01.526Z,100706.80
2018-11-25T01:58:34.023Z,100707.30
2018-11-25T02:01:06.913Z,100701.70
2018-11-25T02:03:39.429Z,100701.83
2018-11-25T02:06:11.802Z,100704.91
2018-11-25T02:08:44.214Z,100699.14
2018-11-25T02:11:16.610Z,100695.08
2018-11-25T02:13:49.254Z,100694.77
2018-11-25T02:16:21.832Z,100684.03
2018-11-25T02:18:54.770Z,100687.55
2018-11-25T02:21:27.131Z,100692.95
2018-11-25T02:23:59.598Z,100697.34
2018-11-25T02:26:32.113Z,100696.22
2018-11-25T02:29:04.639Z,100688.72
2018-11-25T02:31:37.054Z,100683.61
2018-11-25T02:34:09.620Z,100686.53
2018-11-25T02:36:42.018Z,100682.50
2018-11-25T02:39:14.506Z,100684.14
2018-11-25T02:41:47.018Z,100687.05
2018-11-25T02:44:19.422Z,100687.37
2018-11-25T02:46:51.813Z,100688.09
2018-11-25T02:49:24.204Z,100686.75
2018-11-25T02:51:56.604Z,100681.91
2018-11-25T02:54:29.007Z,100681.80
2018-11-25T02:57:01.418Z,100683.33
2018-11-25T02:59:33.903Z,100679.98
2018-11-25T03:02:06.493Z,100684.94
2018-11-25T03:04:39.789Z,100685.09
2018-11-25T03:07:12.261Z,100681.63
2018-11-25T03:09:45.238Z,100681.97
2018-11-25T03:12:17.611Z,100691.00
2018-11-25T03:14:50.056Z,100691.37
2018-11-25T03:17:22.435Z,100681.58
2018-11-25T03:19:54.788Z,100688.92
2018-11-25T03:22:27.223Z,100682.89
2018-11-25T03:24:59.673Z,100694.06
2018-11-25T03:27:32.279Z,100685.37
2018-11-25T03:30:04.970Z,100683.63
2018-11-25T03:32:37.345Z,100678.81
2018-11-25T03:35:11.524Z,100687.09
2018-11-25T03:37:44.061Z,100686.33
2018-11-25T03:40:17.840Z,100683.50
2018-11-25T03:42:50.250Z,100682.30
2018-11-25T03:45:23.627Z,100676.92
2018-11-25T03:47:56.020Z,100684.04
2018-11-25T03:50:28.421Z,100679.17
2018-11-25T03:53:00.800Z,100678.52
2018-11-25T03:55:33.184Z,100674.30
2018-11-25T03:58:05.651Z,100679.33
2018-11-25T04:00:38.601Z,100667.23
2018-11-25T04:03:10.984Z,100673.69
2018-11-25T04:05:43.427Z,100680.87
2018-11-25T04:08:15.821Z,100679.17
2018-11-25T04:10:48.329Z,100685.27
2018-11-25T04:13:21.644Z,100689.19
2018-11-25T04:15:54.044Z,100690.80
2018-11-25T04:18:27.340Z,100686.64
2018-11-25T04:20:59.746Z,100684.81
2018-11-25T04:23:32.248Z,100688.03
2018-11-25T04:26:04.651Z,100687.05
2018-11-25T04:28:37.026Z,100684.77
2018-11-25T04:31:09.844Z,100686.98
2018-11-25T04:33:42.326Z,100677.59
2018-11-25T04:36:14.802Z,100679.52
2018-11-25T04:38:47.165Z,100681.20
2018-11-25T04:41:19.547Z,100685.47
2018-11-25T04:43:51.942Z,100678.74
2018-11-25T04:46:24.368Z,100687.16
2018-11-25T04:48:56.740Z,100688.55
2018-11-25T04:51:29.168Z,100687.70
2018-11-25T04:54:01.648Z,100680.73
2018-11-25T04:56:34.082Z,100688.64
2018-11-25T04:59:06.516Z,100684.72
2018-11-25T05:01:38.928Z,100684.16
2018-11-25T05:04:11.326Z,100680.83
2018-11-25T05:06:43.734Z,100674.11
2018-11-25T05:09:16.102Z,100684.30
2018-11-25T05:11:48.512Z,100678.88
2018-11-25T05:14:20.886Z,100682.70
2018-11-25T05:16:53.261Z,100688.41
2018-11-25T05:19:25.683Z,100688.28
2018-11-25T05:21:58.081Z,100688.94
2018-11-25T05:24:30.591Z,100689.67
2018-11-25T05:27:03.034Z,100689.82
2018-11-25T05:29:35.450Z,100688.59
2018-11-25T05:32:08.322Z,100691.34
2018-11-25T05:34:40.703Z,100679.75
2018-11-25T05:37:13.060Z,100677.48
2018-11-25T05:39:45.586Z,100674.14
2018-11-25T05:42:18.027Z,100680.92
2018-11-25T05:44:50.412Z,100672.46
2018-11-25T05:47:23.009Z,100671.07
2018-11-25T05:49:55.399Z,100671.92
2018-11-25T05:52:27.881Z,100662.31
2018-11-25T05:55:00.276Z,100672.82
2018-11-25T05:57:32.762Z,100658.63
2018-11-25T06:00:05.297Z,100656.44
2018-11-25T06:02:37.797Z,100662.61
2018-11-25T06:05:10.261Z,100662.08
2018-11-25T06:07:42.695Z,100654.31
2018-11-25T06:10:15.926Z,100665.45
2018-11-25T06:12:48.365Z,100665.38
2018-11-25T06:15:21.643Z,100668.66
2018-11-25T06:17:54.052Z,100668.02
2018-11-25T06:20:26.430Z,100677.48
2018-11-25T06:22:58.798Z,100681.53
2018-11-25T06:27:55.895Z,100680.63
2018-11-25T06:30:27.362Z,100678.79
2018-11-25T06:32:58.871Z,100677.83
2018-11-25T06:35:30.475Z,100676.42
2018-11-25T06:38:01.930Z,100678.68
2018-11-25T06:40:33.426Z,100681.69
2018-11-25T06:43:05.072Z,100699.58
2018-11-25T06:45:36.628Z,100704.39
2018-11-25T06:48:08.550Z,100695.97
2018-11-25T06:50:40.123Z,100694.70
2018-11-25T06:53:11.658Z,100695.02
2018-11-25T06:55:43.164Z,100689.30
2018-11-25T06:58:14.800Z,100691.43
2018-11-25T07:00:46.667Z,100686.09
2018-11-25T07:03:18.174Z,100679.55
2018-11-25T07:05:50.016Z,100683.79
2018-11-25T07:08:21.568Z,100691.29
2018-11-25T07:10:53.251Z,100689.52
2018-11-25T07:13:24.934Z,100696.84
2018-11-25T07:15:57.392Z,100690.94
2018-11-25T07:18:28.906Z,100693.50
2018-11-25T07:21:00.539Z,100689.59
2018-11-25T07:23:32.125Z,100687.95
2018-11-25T07:26:03.723Z,100695.17
2018-11-25T07:28:35.522Z,100691.02
2018-11-25T07:31:07.705Z,100691.50
2018-11-25T07:33:39.241Z,100696.59
2018-11-25T07:36:10.678Z,100696.88
2018-11-25T07:38:42.183Z,100703.88
2018-11-25T07:41:13.653Z,100700.28
2018-11-25T07:43:45.322Z,100708.39
2018-11-25T07:46:17.002Z,100698.58
2018-11-25T07:48:48.559Z,100690.64
2018-11-25T07:51:20.046Z,100696.19
2018-11-25T07:53:51.589Z,100693.58
2018-11-25T07:56:23.179Z,100691.11
2018-11-25T07:58:54.704Z,100694.43
2018-11-25T08:01:26.201Z,100698.66
2018-11-25T08:03:57.689Z,100698.84
2018-11-25T08:06:29.267Z,100697.93
2018-11-25T08:09:00.737Z,100692.08
2018-11-25T08:11:32.930Z,100690.27
2018-11-25T08:14:04.420Z,100700.80
2018-11-25T08:16:35.932Z,100700.06
2018-11-25T08:19:07.950Z,100700.50
2018-11-25T08:21:39.535Z,100700.20
2018-11-25T08:24:12.011Z,100697.44
2018-11-25T08:26:43.605Z,100694.19
2018-11-25T08:29:15.071Z,100689.11
2018-11-25T08:31:46.606Z,100692.83
2018-11-25T08:34:18.104Z,100692.23
2018-11-25T08:36:49.596Z,100687.95
2018-11-25T08:39:21.051Z,100682.16
2018-11-25T08:41:52.634Z,100685.65
2018-11-25T08:44:24.116Z,100681.43
2018-11-25T08:46:55.610Z,100686.06
2018-11-25T08:49:27.249Z,100675.42
2018-11-25T08:51:58.759Z,100676.50
2018-11-25T08:54:30.293Z,100677.59
2018-11-25T08:57:01.796Z,100675.62
2018-11-25T08:59:33.484Z,100678.14
2018-11-25T09:02:05.038Z,100677.54
2018-11-25T09:04:36.546Z,100677.63
2018-11-25T09:07:08.151Z,100673.05
2018-11-25T09:09:39.660Z,100668.36
2018-11-25T09:12:11.151Z,100669.61
2018-11-25T09:14:42.663Z,100675.06
2018-11-25T09:17:14.138Z,100673.93
2018-11-25T09:19:45.622Z,100680.16
2018-11-25T09:22:17.193Z,100680.16
2018-11-25T09:24:48.736Z,100683.59
2018-11-25T09:27:20.319Z,100683.16
2018-11-25T09:29:51.931Z,100677.56
2018-11-25T09:32:23.448Z,100680.81
2018-11-25T09:34:55.039Z,100678.41
2018-11-25T09:37:26.511Z,100687.66
2018-11-25T09:39:58.016Z,100697.86
2018-11-25T09:42:29.517Z,100707.20
2018-11-25T09:45:01.169Z,100710.01
2018-11-25T09:47:33.532Z,100705.19
2018-11-25T09:50:05.534Z,100696.30
2018-11-25T09:52:37.117Z,100694.58
2018-11-25T09:55:15.273Z,100697.71
2018-11-25T09:57:48.321Z,100695.42
2018-11-25T10:00:24.250Z,100693.44
2018-11-25T10:02:55.814Z,100690.53
2018-11-25T10:05:27.408Z,100684.16
2018-11-25T10:07:58.874Z,100678.45
2018-11-25T10:10:30.404Z,100673.27
2018-11-25T10:13:01.922Z,100680.75
2018-11-25T10:15:33.479Z,100681.41
2018-11-25T10:18:04.971Z,100674.17
2018-11-25T10:20:36.985Z,100668.48
2018-11-25T10:23:08.580Z,100663.53
2018-11-25T10:25:40.203Z,100661.16
2018-11-25T10:28:11.836Z,100658.51
2018-11-25T10:30:43.371Z,100661.31
2018-11-25T10:33:15.123Z,100659.56
2018-11-25T10:35:46.690Z,100659.00
2018-11-25T10:38:18.180Z,100655.36
2018-11-25T10:40:49.679Z,100659.89
2018-11-25T10:43:21.266Z,100651.70
2018-11-25T10:45:52.976Z,100655.59
2018-11-25T10:48:24.459Z,100653.55
2018-11-25T10:50:55.906Z,100654.83
2018-11-25T10:53:30.768Z,100647.58
2018-11-25T10:56:02.379Z,100656.63
2018-11-25T10:58:33.886Z,100658.51
2018-11-25T11:01:22.724Z,100663.22
2018-11-25T11:03:58.392Z,100656.12
2018-11-25T11:06:47.261Z,100659.22
2018-11-25T11:09:18.748Z,100665.55
2018-11-25T11:11:50.258Z,100660.63
2018-11-25T11:14:21.882Z,100659.20
2018-11-25T11:16:53.940Z,100664.84
2018-11-25T11:19:26.004Z,100658.55
2018-11-25T11:21:57.486Z,100656.94
2018-11-25T11:24:28.997Z,100653.23
2018-11-25T11:27:00.558Z,100642.92
2018-11-25T11:29:35.044Z,100639.77
2018-11-25T11:32:06.515Z,100637.50
2018-11-25T11:34:38.049Z,100632.09
2018-11-25T11:37:09.661Z,100639.21
2018-11-25T11:39:41.271Z,100639.72
2018-11-25T11:42:13.143Z,100645.50
2018-11-25T11:44:44.641Z,100644.45
2018-11-25T11:47:20.259Z,100652.65
2018-11-25T11:49:51.792Z,100655.80
2018-11-25T11:52:23.344Z,100650.64
2018-11-25T11:54:55.003Z,100645.97
2018-11-25T11:57:26.450Z,100643.13
2018-11-25T11:59:58.018Z,100634.30
2018-11-25T12:02:31.663Z,100630.84
2018-11-25T12:05:01.964Z,100625.73
2018-11-25T12:07:33.584Z,100640.48
2018-11-25T12:10:05.092Z,100635.00
2018-11-25T12:12:36.562Z,100628.95
2018-11-25T12:15:16.809Z,100630.92
2018-11-25T12:17:48.340Z,100626.34
2018-11-25T12:20:21.589Z,100623.87
2018-11-25T12:22:54.088Z,100624.52
2018-11-25T12:25:25.538Z,100622.08
2018-11-25T12:27:57.132Z,100620.77
2018-11-25T12:30:28.657Z,100613.88
2018-11-25T12:33:00.126Z,100612.23
2018-11-25T12:35:31.676Z,100611.02
2018-11-25T12:38:03.224Z,100611.56
2018-11-25T12:40:34.839Z,100612.08
2018-11-25T12:43:06.755Z,100607.02
2018-11-25T12:45:38.285Z,100605.70
2018-11-25T12:48:09.857Z,100604.77
2018-11-25T12:50:41.361Z,100607.63
2018-11-25T12:53:12.851Z,100611.56
2018-11-25T12:55:44.577Z,100612.39
2018-11-25T12:58:16.726Z,100606.84
2018-11-25T13:00:49.743Z,100613.47
2018-11-25T13:03:21.276Z,100610.44
2018-11-25T13:05:52.925Z,100605.50
2018-11-25T13:08:24.554Z,100608.77
2018-11-25T13:10:56.069Z,100598.34
2018-11-25T13:13:28.028Z,100602.41
2018-11-25T13:15:59.584Z,100596.02
2018-11-25T13:18:31.282Z,100596.17
2018-11-25T13:21:03.054Z,100596.33
2018-11-25T13:23:34.666Z,100588.60
2018-11-25T13:26:06.980Z,100588.73
2018-11-25T13:28:38.978Z,100586.31
2018-11-25T13:31:10.605Z,100586.05
2018-11-25T13:33:42.141Z,100589.16
2018-11-25T13:36:13.637Z,100589.56
2018-11-25T13:38:45.128Z,100595.84
2018-11-25T13:41:16.847Z,100603.48
2018-11-25T13:43:48.547Z,100597.36
2018-11-25T13:46:20.034Z,100601.36
2018-11-25T13:48:51.948Z,100603.20
2018-11-25T13:51:23.792Z,100594.44
2018-11-25T13:53:58.919Z,100597.33
2018-11-25T13:56:30.451Z,100598.92
2018-11-25T13:59:01.934Z,100598.89
2018-11-25T14:01:33.599Z,100593.92
2018-11-25T14:04:05.103Z,100590.75
2018-11-25T14:06:36.694Z,100590.59
2018-11-25T14:09:12.688Z,100588.91
2018-11-25T14:11:44.240Z,100582.24
2018-11-25T14:14:15.696Z,100584.22
2018-11-25T14:16:47.253Z,100586.44
2018-11-25T14:19:18.808Z,100592.48
2018-11-25T14:21:50.297Z,100592.41
2018-11-25T14:24:21.804Z,100587.30
2018-11-25T14:27:00.309Z,100590.73
2018-11-25T14:29:32.200Z,100596.48
2018-11-25T14:32:03.775Z,100587.79
2018-11-25T14:34:35.302Z,100591.32
2018-11-25T14:37:06.880Z,100594.13
2018-11-25T14:39:38.340Z,100589.55
2018-11-25T14:42:09.859Z,100593.00
2018-11-25T14:44:41.377Z,100595.33
2018-11-25T14:47:12.856Z,100596.03
2018-11-25T14:49:44.547Z,100594.13
2018-11-25T14:52:16.068Z,100586.61
2018-11-25T14:54:51.336Z,100591.32
2018-11-25T14:57:20.961Z,100594.41
2018-11-25T14:59:52.962Z,100591.45
2018-11-25T15:02:24.524Z,100585.55
2018-11-25T15:04:56.235Z,100586.84
2018-11-25T15:07:27.776Z,100598.09
2018-11-25T15:10:10.833Z,100588.28
2018-11-25T15:12:42.903Z,100599.12
2018-11-25T15:15:15.571Z,100590.13
2018-11-25T15:17:47.251Z,100595.49
2018-11-25T15:20:18.701Z,100591.84
2018-11-25T15:22:55.394Z,100596.66
2018-11-25T15:25:35.039Z,100593.94
2018-11-25T15:28:07.040Z,100604.73
2018-11-25T15:30:38.961Z,100607.86
2018-11-25T15:33:10.497Z,100597.31
2018-11-25T15:35:42.194Z,100603.63
2018-11-25T15:38:14.007Z,100598.34
2018-11-25T15:40:47.800Z,100596.83
2018-11-25T15:43:19.663Z,100597.21
2018-11-25T15:45:51.179Z,100601.33
2018-11-25T15:48:27.816Z,100595.95
2018-11-25T15:50:59.402Z,100593.94
2018-11-25T15:53:31.497Z,100604.30
2018-11-25T15:56:05.288Z,100604.30
2018-11-25T15:58:36.951Z,100605.94
2018-11-25T16:01:41.625Z,100600.34
2018-11-25T16:04:13.217Z,100593.18
2018-11-25T16:06:45.182Z,100599.69
2018-11-25T16:09:17.450Z,100599.31
2018-11-25T16:11:48.998Z,100611.89
2018-11-25T16:14:20.601Z,100609.20
2018-11-25T16:16:52.106Z,100617.20
2018-11-25T16:19:23.713Z,100610.17
2018-11-25T16:21:55.443Z,100607.95
2018-11-25T16:24:26.978Z,100603.84
2018-11-25T16:26:58.494Z,100604.59
2018-11-25T16:29:30.100Z,100599.02
2018-11-25T16:32:01.604Z,100603.71
2018-11-25T16:34:33.069Z,100604.65
2018-11-25T16:37:04.786Z,100606.69
2018-11-25T16:39:36.360Z,100604.11
2018-11-25T16:42:10.598Z,100603.48
2018-11-25T16:44:42.129Z,100598.09
2018-11-25T16:47:13.664Z,100599.96
2018-11-25T16:49:45.192Z,100602.77
2018-11-25T16:52:16.636Z,100592.02
2018-11-25T16:54:48.127Z,100589.22
2018-11-25T16:57:19.646Z,100586.67
2018-11-25T16:59:51.201Z,100589.77
2018-11-25T17:02:22.787Z,100585.33
2018-11-25T17:04:54.230Z,100591.41
2018-11-25T17:07:25.814Z,100582.56
2018-11-25T17:09:57.246Z,100581.97
2018-11-25T17:12:28.839Z,100584.02
2018-11-25T17:15:00.317Z,100585.83
2018-11-25T17:17:32.068Z,100584.69
2018-11-25T17:20:03.570Z,100593.02
2018-11-25T17:22:35.067Z,100599.20
2018-11-25T17:25:08.201Z,100591.59
2018-11-25T17:27:39.717Z,100590.60
2018-11-25T17:30:13.001Z,100593.73
2018-11-25T17:32:44.869Z,100592.50
2018-11-25T17:35:23.642Z,100593.84
2018-11-25T17:37:55.144Z,100589.79
2018-11-25T17:40:26.681Z,100602.34
2018-11-25T17:42:58.187Z,100609.77
2018-11-25T17:45:29.764Z,100608.14
2018-11-25T17:48:01.343Z,100612.52
2018-11-25T17:50:32.992Z,100610.11
2018-11-25T17:53:04.493Z,100612.95
2018-11-25T17:55:36.043Z,100615.85
2018-11-25T17:58:08.152Z,100614.69
2018-11-25T18:01:02.262Z,100615.93
2018-11-25T18:03:35.104Z,100617.91
2018-11-25T18:06:06.963Z,100612.95
2018-11-25T18:08:38.509Z,100611.98
2018-11-25T18:11:10.025Z,100609.95
2018-11-25T18:13:42.506Z,100610.84
2018-11-25T18:16:14.631Z,100610.51
2018-11-25T18:18:55.237Z,100616.24
2018-11-25T18:21:28.111Z,100626.18
2018-11-25T18:24:00.175Z,100618.70
2018-11-25T18:26:31.822Z,100618.55
2018-11-25T18:29:03.360Z,100611.83
2018-11-25T18:31:34.930Z,100615.90
2018-11-25T18:34:06.528Z,100618.44
2018-11-25T18:36:38.453Z,100623.94
2018-11-25T18:39:13.612Z,100615.64
2018-11-25T18:41:45.215Z,100620.09
2018-11-25T18:44:16.834Z,100621.23
2018-11-25T18:46:48.531Z,100624.55
2018-11-25T18:49:20.409Z,100615.90
2018-11-25T18:51:51.900Z,100628.95
2018-11-25T18:54:23.454Z,100626.23
2018-11-25T18:56:55.054Z,100632.23
2018-11-25T18:59:27.504Z,100631.84
2018-11-25T19:02:01.994Z,100629.50
2018-11-25T19:04:33.693Z,100629.66
2018-11-25T19:07:05.219Z,100634.29
2018-11-25T19:09:38.150Z,100625.88
2018-11-25T19:12:09.800Z,100630.59
2018-11-25T19:14:41.956Z,100626.27
2018-11-25T19:17:15.750Z,100634.23
2018-11-25T19:19:48.830Z,100630.27
2018-11-25T19:22:21.358Z,100631.89
2018-11-25T19:24:54.451Z,100630.25
2018-11-25T19:27:26.654Z,100631.67
2018-11-25T19:29:58.765Z,100628.27
2018-11-25T19:32:30.856Z,100629.42
2018-11-25T19:35:02.915Z,100629.26
2018-11-25T19:37:38.142Z,100633.83
2018-11-25T19:40:20.600Z,100639.38
2018-11-25T19:42:57.705Z,100639.34
2018-11-25T19:45:29.796Z,100636.68
2018-11-25T19:48:02.217Z,100634.21
2018-11-25T19:50:41.924Z,100632.83
2018-11-25T19:53:13.674Z,100636.37
2018-11-25T19:55:45.185Z,100648.98
2018-11-25T19:58:16.647Z,100639.84
2018-11-25T20:00:48.198Z,100653.84
2018-11-25T20:03:19.675Z,100652.57
2018-11-25T20:05:51.319Z,100652.58
2018-11-25T20:08:22.832Z,100651.56
2018-11-25T20:10:55.057Z,100659.02
2018-11-25T20:13:26.636Z,100654.75
2018-11-25T20:16:15.405Z,100650.66
2018-11-25T20:18:47.014Z,100653.10
2018-11-25T20:21:36.130Z,100654.45
2018-11-25T20:24:07.736Z,100653.39
2018-11-25T20:26:57.893Z,100656.14
2018-11-25T20:29:29.376Z,100655.80
2018-11-25T20:32:18.095Z,100656.14
2018-11-25T20:34:49.549Z,100654.23
2018-11-25T20:37:26.951Z,100659.20
2018-11-25T20:39:55.122Z,100669.25
2018-11-25T20:42:26.822Z,100668.58
2018-11-25T20:44:58.340Z,100666.44
2018-11-25T20:47:29.911Z,100664.26
2018-11-25T20:50:01.468Z,100662.53
2018-11-25T20:52:50.461Z,100663.43
2018-11-25T20:55:21.988Z,100660.68
2018-11-25T20:57:53.596Z,100666.72
2018-11-25T21:00:26.378Z,100674.63
2018-11-25T21:02:58.086Z,100664.55
2018-11-25T21:05:29.648Z,100669.94
2018-11-25T21:08:01.204Z,100666.50
2018-11-25T21:10:32.769Z,100672.95
2018-11-25T21:13:04.330Z,100671.95
2018-11-25T21:15:35.810Z,100665.56
2018-11-25T21:18:07.821Z,100667.63
2018-11-25T21:20:40.357Z,100668.94
2018-11-25T21:23:12.048Z,100663.34
2018-11-25T21:25:43.605Z,100666.45
2018-11-25T21:28:15.307Z,100668.26
2018-11-25T21:30:46.881Z,100666.33
2018-11-25T21:33:18.497Z,100667.67
2018-11-25T21:35:50.078Z,100669.31
2018-11-25T21:38:21.667Z,100666.29
2018-11-25T21:40:53.331Z,100672.59
2018-11-25T21:43:24.899Z,100669.34
2018-11-25T21:45:57.236Z,100675.70
2018-11-25T21:48:28.994Z,100678.49
2018-11-25T21:51:01.219Z,100677.60
2018-11-25T21:53:33.445Z,100671.10
2018-11-25T21:56:05.173Z,100675.13
2018-11-25T21:58:36.750Z,100677.36
2018-11-25T22:01:08.430Z,100671.75
2018-11-25T22:03:42.863Z,100678.83
2018-11-25T22:06:14.485Z,100680.48
2018-11-25T22:08:46.190Z,100687.48
2018-11-25T22:11:17.867Z,100681.19
2018-11-25T22:13:49.389Z,100679.14
2018-11-25T22:16:21.123Z,100678.09
2018-11-25T22:18:52.818Z,100678.58
2018-11-25T22:21:24.315Z,100677.48
2018-11-25T22:23:56.026Z,100682.36
2018-11-25T22:26:27.491Z,100679.70
2018-11-25T22:28:59.030Z,100675.59
2018-11-25T22:31:30.487Z,100684.17
2018-11-25T22:34:02.038Z,100675.13
2018-11-25T22:36:33.506Z,100681.11
2018-11-25T22:39:07.194Z,100681.27
2018-11-25T22:41:38.843Z,100685.78
2018-11-25T22:44:10.381Z,100677.56
2018-11-25T22:46:41.873Z,100673.48
2018-11-25T22:49:13.395Z,100675.50
2018-11-25T22:51:44.858Z,100672.77
2018-11-25T22:54:16.385Z,100671.89
2018-11-25T22:56:47.951Z,100673.24
2018-11-25T22:59:19.586Z,100667.56
2018-11-25T23:01:51.087Z,100663.52
2018-11-25T23:04:58.138Z,100667.36
2018-11-25T23:07:29.680Z,100666.47
2018-11-25T23:10:01.123Z,100660.42
2018-11-25T23:12:43.829Z,100661.44
2018-11-25T23:15:17.459Z,100660.81
2018-11-25T23:17:51.753Z,100663.53
2018-11-25T23:20:23.669Z,100667.58
2018-11-25T23:22:55.271Z,100663.28
2018-11-25T23:25:26.740Z,100663.58
2018-11-25T23:27:58.355Z,100664.68
2018-11-25T23:30:29.888Z,100662.25
2018-11-25T23:33:01.365Z,100659.02
2018-11-25T23:35:35.554Z,100657.98
2018-11-25T23:38:07.284Z,100654.95
2018-11-25T23:40:39.494Z,100660.92
2018-11-25T23:43:11.052Z,100648.69
2018-11-25T23:45:42.547Z,100656.69
2018-11-25T23:48:14.034Z,100657.41
2018-11-25T23:50:45.517Z,100656.69
2018-11-25T23:53:17.085Z,100654.51
2018-11-25T23:55:48.620Z,100660.02
2018-11-25T23:58:20.208Z,100659.80
